sensor_id;sensor_type;location;lat;lon;timestamp;P1;durP1;ratioP1;P2;durP2;ratioP2
51479;SDS011;37556;44.570;18.612;2022-09-01T00:01:04;1.15;;;1.05;;
51479;SDS011;37556;44.570;18.612;2022-09-01T00:03:32;0.95;;;0.95;;
51479;SDS011;37556;44.570;18.612;2022-09-01T00:05:59;0.90;;;0.77;;
51479;SDS011;37556;44.570;18.612;2022-09-01T00:10:51;2.00;;;1.85;;
51479;SDS011;37556;44.570;18.612;2022-09-01T00:13:17;1.13;;;1.13;;
51479;SDS011;37556;44.570;18.612;2022-09-01T00:18:09;0.68;;;0.68;;
51479;SDS011;37556;44.570;18.612;2022-09-01T00:23:01;1.17;;;1.17;;
51479;SDS011;37556;44.570;18.612;2022-09-01T00:25:28;0.75;;;0.75;;
51479;SDS011;37556;44.570;18.612;2022-09-01T00:27:54;0.95;;;0.95;;
51479;SDS011;37556;44.570;18.612;2022-09-01T00:30:24;1.50;;;1.45;;
51479;SDS011;37556;44.570;18.612;2022-09-01T00:32:51;0.93;;;0.90;;
51479;SDS011;37556;44.570;18.612;2022-09-01T00:37:43;0.93;;;0.82;;
51479;SDS011;37556;44.570;18.612;2022-09-01T00:40:10;1.27;;;1.27;;
51479;SDS011;37556;44.570;18.612;2022-09-01T00:42:37;0.55;;;0.55;;
51479;SDS011;37556;44.570;18.612;2022-09-01T00:45:04;0.88;;;0.88;;
51479;SDS011;37556;44.570;18.612;2022-09-01T00:47:30;7.05;;;2.30;;
51479;SDS011;37556;44.570;18.612;2022-09-01T00:52:35;1.45;;;1.35;;
51479;SDS011;37556;44.570;18.612;2022-09-01T00:55:12;1.17;;;1.13;;
51479;SDS011;37556;44.570;18.612;2022-09-01T00:57:39;1.25;;;1.17;;
51479;SDS011;37556;44.570;18.612;2022-09-01T01:00:08;0.80;;;0.80;;
51479;SDS011;37556;44.570;18.612;2022-09-01T01:02:35;0.55;;;0.55;;
51479;SDS011;37556;44.570;18.612;2022-09-01T01:05:03;1.27;;;1.17;;
51479;SDS011;37556;44.570;18.612;2022-09-01T01:07:29;0.93;;;0.93;;
51479;SDS011;37556;44.570;18.612;2022-09-01T01:09:57;0.20;;;0.20;;
51479;SDS011;37556;44.570;18.612;2022-09-01T01:14:51;2.30;;;2.20;;
51479;SDS011;37556;44.570;18.612;2022-09-01T01:17:19;1.27;;;1.17;;
51479;SDS011;37556;44.570;18.612;2022-09-01T01:19:46;0.75;;;0.75;;
51479;SDS011;37556;44.570;18.612;2022-09-01T01:25:31;1.17;;;0.80;;
51479;SDS011;37556;44.570;18.612;2022-09-01T01:28:18;2.58;;;1.33;;
51479;SDS011;37556;44.570;18.612;2022-09-01T01:30:54;0.93;;;0.93;;
51479;SDS011;37556;44.570;18.612;2022-09-01T01:33:22;5.63;;;1.85;;
51479;SDS011;37556;44.570;18.612;2022-09-01T01:35:49;2.53;;;2.40;;
51479;SDS011;37556;44.570;18.612;2022-09-01T01:38:21;1.10;;;1.10;;
51479;SDS011;37556;44.570;18.612;2022-09-01T01:40:48;2.03;;;1.92;;
51479;SDS011;37556;44.570;18.612;2022-09-01T01:43:15;1.00;;;1.00;;
51479;SDS011;37556;44.570;18.612;2022-09-01T01:45:46;2.10;;;1.92;;
51479;SDS011;37556;44.570;18.612;2022-09-01T01:48:16;3.10;;;1.58;;
51479;SDS011;37556;44.570;18.612;2022-09-01T01:50:48;2.83;;;2.25;;
51479;SDS011;37556;44.570;18.612;2022-09-01T01:53:15;1.75;;;1.65;;
51479;SDS011;37556;44.570;18.612;2022-09-01T01:55:43;0.95;;;0.95;;
51479;SDS011;37556;44.570;18.612;2022-09-01T01:58:09;1.45;;;1.38;;
51479;SDS011;37556;44.570;18.612;2022-09-01T02:00:39;0.75;;;0.63;;
51479;SDS011;37556;44.570;18.612;2022-09-01T02:03:09;1.20;;;1.17;;
51479;SDS011;37556;44.570;18.612;2022-09-01T02:05:37;2.00;;;1.42;;
51479;SDS011;37556;44.570;18.612;2022-09-01T02:08:07;1.33;;;1.23;;
51479;SDS011;37556;44.570;18.612;2022-09-01T02:10:34;0.80;;;0.80;;
51479;SDS011;37556;44.570;18.612;2022-09-01T02:13:02;2.75;;;2.53;;
51479;SDS011;37556;44.570;18.612;2022-09-01T02:15:30;2.72;;;1.77;;
51479;SDS011;37556;44.570;18.612;2022-09-01T02:17:59;1.30;;;0.95;;
51479;SDS011;37556;44.570;18.612;2022-09-01T02:20:25;1.17;;;0.93;;
51479;SDS011;37556;44.570;18.612;2022-09-01T02:22:57;2.10;;;1.25;;
51479;SDS011;37556;44.570;18.612;2022-09-01T02:25:34;2.10;;;0.85;;
51479;SDS011;37556;44.570;18.612;2022-09-01T02:28:01;0.60;;;0.60;;
51479;SDS011;37556;44.570;18.612;2022-09-01T02:30:28;3.08;;;1.73;;
51479;SDS011;37556;44.570;18.612;2022-09-01T02:32:57;1.88;;;1.77;;
51479;SDS011;37556;44.570;18.612;2022-09-01T02:35:23;1.65;;;1.55;;
51479;SDS011;37556;44.570;18.612;2022-09-01T02:37:56;1.30;;;1.17;;
51479;SDS011;37556;44.570;18.612;2022-09-01T02:40:25;2.95;;;2.67;;
51479;SDS011;37556;44.570;18.612;2022-09-01T02:42:54;3.33;;;3.10;;
51479;SDS011;37556;44.570;18.612;2022-09-01T02:45:21;4.93;;;2.97;;
51479;SDS011;37556;44.570;18.612;2022-09-01T02:47:48;2.10;;;2.00;;
51479;SDS011;37556;44.570;18.612;2022-09-01T02:50:15;5.68;;;3.28;;
51479;SDS011;37556;44.570;18.612;2022-09-01T02:52:46;21.08;;;2.60;;
51479;SDS011;37556;44.570;18.612;2022-09-01T02:55:14;2.58;;;2.38;;
51479;SDS011;37556;44.570;18.612;2022-09-01T02:57:46;4.10;;;2.38;;
51479;SDS011;37556;44.570;18.612;2022-09-01T03:00:12;2.83;;;2.63;;
51479;SDS011;37556;44.570;18.612;2022-09-01T03:02:50;6.80;;;3.17;;
51479;SDS011;37556;44.570;18.612;2022-09-01T03:05:17;4.32;;;2.35;;
51479;SDS011;37556;44.570;18.612;2022-09-01T03:07:49;2.28;;;2.17;;
51479;SDS011;37556;44.570;18.612;2022-09-01T03:10:18;3.75;;;2.05;;
51479;SDS011;37556;44.570;18.612;2022-09-01T03:12:45;1.85;;;1.85;;
51479;SDS011;37556;44.570;18.612;2022-09-01T03:15:11;5.85;;;2.85;;
51479;SDS011;37556;44.570;18.612;2022-09-01T03:20:05;6.57;;;3.38;;
51479;SDS011;37556;44.570;18.612;2022-09-01T03:22:32;9.80;;;2.88;;
51479;SDS011;37556;44.570;18.612;2022-09-01T03:27:24;3.55;;;2.10;;
51479;SDS011;37556;44.570;18.612;2022-09-01T03:32:16;2.20;;;1.85;;
51479;SDS011;37556;44.570;18.612;2022-09-01T03:34:43;2.67;;;2.05;;
51479;SDS011;37556;44.570;18.612;2022-09-01T03:37:09;3.42;;;2.45;;
51479;SDS011;37556;44.570;18.612;2022-09-01T03:39:36;4.00;;;2.50;;
51479;SDS011;37556;44.570;18.612;2022-09-01T03:42:02;2.25;;;2.05;;
51479;SDS011;37556;44.570;18.612;2022-09-01T03:44:28;1.27;;;1.00;;
51479;SDS011;37556;44.570;18.612;2022-09-01T03:46:57;2.55;;;2.38;;
51479;SDS011;37556;44.570;18.612;2022-09-01T03:49:25;1.55;;;1.38;;
51479;SDS011;37556;44.570;18.612;2022-09-01T03:51:52;2.50;;;1.58;;
51479;SDS011;37556;44.570;18.612;2022-09-01T03:54:19;1.40;;;1.40;;
51479;SDS011;37556;44.570;18.612;2022-09-01T03:56:54;1.38;;;1.27;;
51479;SDS011;37556;44.570;18.612;2022-09-01T03:59:23;1.63;;;1.15;;
51479;SDS011;37556;44.570;18.612;2022-09-01T04:01:50;5.30;;;1.13;;
51479;SDS011;37556;44.570;18.612;2022-09-01T04:04:16;1.65;;;1.58;;
51479;SDS011;37556;44.570;18.612;2022-09-01T04:09:08;1.30;;;1.17;;
51479;SDS011;37556;44.570;18.612;2022-09-01T04:11:35;1.40;;;1.30;;
51479;SDS011;37556;44.570;18.612;2022-09-01T04:14:03;0.80;;;0.80;;
51479;SDS011;37556;44.570;18.612;2022-09-01T04:19:14;0.28;;;0.28;;
51479;SDS011;37556;44.570;18.612;2022-09-01T04:21:46;1.00;;;0.85;;
51479;SDS011;37556;44.570;18.612;2022-09-01T04:24:14;0.65;;;0.65;;
51479;SDS011;37556;44.570;18.612;2022-09-01T04:26:41;4.20;;;1.17;;
51479;SDS011;37556;44.570;18.612;2022-09-01T04:29:12;0.70;;;0.70;;
51479;SDS011;37556;44.570;18.612;2022-09-01T04:31:38;0.30;;;0.30;;
51479;SDS011;37556;44.570;18.612;2022-09-01T04:34:06;0.65;;;0.47;;
51479;SDS011;37556;44.570;18.612;2022-09-01T04:36:39;5.68;;;1.00;;
51479;SDS011;37556;44.570;18.612;2022-09-01T04:39:06;0.50;;;0.50;;
51479;SDS011;37556;44.570;18.612;2022-09-01T04:41:34;0.57;;;0.57;;
51479;SDS011;37556;44.570;18.612;2022-09-01T04:44:01;1.00;;;0.70;;
51479;SDS011;37556;44.570;18.612;2022-09-01T04:46:29;1.25;;;0.70;;
51479;SDS011;37556;44.570;18.612;2022-09-01T04:48:56;1.08;;;1.05;;
51479;SDS011;37556;44.570;18.612;2022-09-01T04:53:48;1.65;;;1.50;;
51479;SDS011;37556;44.570;18.612;2022-09-01T04:56:15;6.32;;;2.88;;
51479;SDS011;37556;44.570;18.612;2022-09-01T04:58:43;1.48;;;1.38;;
51479;SDS011;37556;44.570;18.612;2022-09-01T05:01:17;0.52;;;0.50;;
51479;SDS011;37556;44.570;18.612;2022-09-01T05:03:44;2.38;;;2.17;;
51479;SDS011;37556;44.570;18.612;2022-09-01T05:06:16;1.08;;;0.68;;
51479;SDS011;37556;44.570;18.612;2022-09-01T05:08:42;0.73;;;0.73;;
51479;SDS011;37556;44.570;18.612;2022-09-01T05:11:10;1.05;;;1.05;;
51479;SDS011;37556;44.570;18.612;2022-09-01T05:13:36;0.98;;;0.93;;
51479;SDS011;37556;44.570;18.612;2022-09-01T05:16:04;0.90;;;0.90;;
51479;SDS011;37556;44.570;18.612;2022-09-01T05:18:31;0.43;;;0.43;;
51479;SDS011;37556;44.570;18.612;2022-09-01T05:20:58;0.80;;;0.80;;
51479;SDS011;37556;44.570;18.612;2022-09-01T05:23:35;0.73;;;0.73;;
51479;SDS011;37556;44.570;18.612;2022-09-01T05:26:01;11.75;;;0.75;;
51479;SDS011;37556;44.570;18.612;2022-09-01T05:28:28;1.50;;;0.90;;
51479;SDS011;37556;44.570;18.612;2022-09-01T05:30:54;1.05;;;1.05;;
51479;SDS011;37556;44.570;18.612;2022-09-01T05:35:53;0.20;;;0.20;;
51479;SDS011;37556;44.570;18.612;2022-09-01T05:38:20;3.10;;;2.33;;
51479;SDS011;37556;44.570;18.612;2022-09-01T05:40:54;0.45;;;0.45;;
51479;SDS011;37556;44.570;18.612;2022-09-01T05:43:28;1.00;;;0.65;;
51479;SDS011;37556;44.570;18.612;2022-09-01T05:45:55;1.20;;;1.15;;
51479;SDS011;37556;44.570;18.612;2022-09-01T05:48:22;1.52;;;1.42;;
51479;SDS011;37556;44.570;18.612;2022-09-01T05:50:49;0.57;;;0.57;;
51479;SDS011;37556;44.570;18.612;2022-09-01T05:53:20;1.33;;;1.10;;
51479;SDS011;37556;44.570;18.612;2022-09-01T05:55:49;1.40;;;1.30;;
51479;SDS011;37556;44.570;18.612;2022-09-01T05:58:24;2.88;;;1.58;;
51479;SDS011;37556;44.570;18.612;2022-09-01T06:00:51;0.25;;;0.25;;
51479;SDS011;37556;44.570;18.612;2022-09-01T06:03:21;0.45;;;0.45;;
51479;SDS011;37556;44.570;18.612;2022-09-01T06:05:48;0.88;;;0.88;;
51479;SDS011;37556;44.570;18.612;2022-09-01T06:08:19;0.75;;;0.75;;
51479;SDS011;37556;44.570;18.612;2022-09-01T06:10:45;0.47;;;0.47;;
51479;SDS011;37556;44.570;18.612;2022-09-01T06:13:14;1.23;;;1.02;;
51479;SDS011;37556;44.570;18.612;2022-09-01T06:15:41;6.60;;;2.20;;
51479;SDS011;37556;44.570;18.612;2022-09-01T06:18:11;0.82;;;0.65;;
51479;SDS011;37556;44.570;18.612;2022-09-01T06:20:39;0.60;;;0.60;;
51479;SDS011;37556;44.570;18.612;2022-09-01T06:23:08;0.20;;;0.20;;
51479;SDS011;37556;44.570;18.612;2022-09-01T06:25:39;0.40;;;0.40;;
51479;SDS011;37556;44.570;18.612;2022-09-01T06:28:07;0.47;;;0.47;;
51479;SDS011;37556;44.570;18.612;2022-09-01T06:30:37;1.45;;;1.08;;
51479;SDS011;37556;44.570;18.612;2022-09-01T06:33:07;1.15;;;0.95;;
51479;SDS011;37556;44.570;18.612;2022-09-01T06:35:35;2.10;;;1.52;;
51479;SDS011;37556;44.570;18.612;2022-09-01T06:38:03;0.80;;;0.80;;
51479;SDS011;37556;44.570;18.612;2022-09-01T06:40:37;1.10;;;1.05;;
51479;SDS011;37556;44.570;18.612;2022-09-01T06:43:05;0.80;;;0.77;;
51479;SDS011;37556;44.570;18.612;2022-09-01T06:45:33;1.77;;;1.67;;
51479;SDS011;37556;44.570;18.612;2022-09-01T06:48:00;0.63;;;0.63;;
51479;SDS011;37556;44.570;18.612;2022-09-01T06:52:52;0.40;;;0.40;;
51479;SDS011;37556;44.570;18.612;2022-09-01T06:55:25;0.60;;;0.60;;
51479;SDS011;37556;44.570;18.612;2022-09-01T06:57:56;1.15;;;1.02;;
51479;SDS011;37556;44.570;18.612;2022-09-01T07:00:23;1.00;;;0.93;;
51479;SDS011;37556;44.570;18.612;2022-09-01T07:02:53;0.45;;;0.45;;
51479;SDS011;37556;44.570;18.612;2022-09-01T07:05:21;0.40;;;0.40;;
51479;SDS011;37556;44.570;18.612;2022-09-01T07:08:05;0.50;;;0.50;;
51479;SDS011;37556;44.570;18.612;2022-09-01T07:14:11;0.38;;;0.38;;
51479;SDS011;37556;44.570;18.612;2022-09-01T07:16:40;0.22;;;0.22;;
51479;SDS011;37556;44.570;18.612;2022-09-01T07:19:08;0.32;;;0.32;;
51479;SDS011;37556;44.570;18.612;2022-09-01T07:21:40;0.30;;;0.30;;
51479;SDS011;37556;44.570;18.612;2022-09-01T07:24:08;0.25;;;0.25;;
51479;SDS011;37556;44.570;18.612;2022-09-01T07:26:34;2.03;;;0.73;;
51479;SDS011;37556;44.570;18.612;2022-09-01T07:29:02;0.50;;;0.50;;
51479;SDS011;37556;44.570;18.612;2022-09-01T07:31:29;0.73;;;0.63;;
51479;SDS011;37556;44.570;18.612;2022-09-01T07:33:57;0.30;;;0.30;;
51479;SDS011;37556;44.570;18.612;2022-09-01T07:36:24;0.20;;;0.20;;
51479;SDS011;37556;44.570;18.612;2022-09-01T07:38:51;0.17;;;0.17;;
51479;SDS011;37556;44.570;18.612;2022-09-01T07:41:21;0.20;;;0.20;;
51479;SDS011;37556;44.570;18.612;2022-09-01T07:43:48;0.63;;;0.57;;
51479;SDS011;37556;44.570;18.612;2022-09-01T07:46:17;0.30;;;0.30;;
51479;SDS011;37556;44.570;18.612;2022-09-01T07:48:43;0.90;;;0.90;;
51479;SDS011;37556;44.570;18.612;2022-09-01T07:51:13;0.40;;;0.40;;
51479;SDS011;37556;44.570;18.612;2022-09-01T07:53:43;0.93;;;0.60;;
51479;SDS011;37556;44.570;18.612;2022-09-01T07:56:10;1.17;;;0.70;;
51479;SDS011;37556;44.570;18.612;2022-09-01T07:58:37;0.98;;;0.95;;
51479;SDS011;37556;44.570;18.612;2022-09-01T08:01:07;0.10;;;0.10;;
51479;SDS011;37556;44.570;18.612;2022-09-01T08:03:34;0.45;;;0.45;;
51479;SDS011;37556;44.570;18.612;2022-09-01T08:06:04;0.75;;;0.40;;
51479;SDS011;37556;44.570;18.612;2022-09-01T08:08:31;0.85;;;0.82;;
51479;SDS011;37556;44.570;18.612;2022-09-01T08:10:57;1.90;;;1.77;;
51479;SDS011;37556;44.570;18.612;2022-09-01T08:13:23;0.52;;;0.52;;
51479;SDS011;37556;44.570;18.612;2022-09-01T08:18:15;0.55;;;0.55;;
51479;SDS011;37556;44.570;18.612;2022-09-01T08:20:42;0.55;;;0.55;;
51479;SDS011;37556;44.570;18.612;2022-09-01T08:23:10;0.30;;;0.30;;
51479;SDS011;37556;44.570;18.612;2022-09-01T08:25:36;0.32;;;0.32;;
51479;SDS011;37556;44.570;18.612;2022-09-01T08:28:03;0.57;;;0.57;;
51479;SDS011;37556;44.570;18.612;2022-09-01T08:30:30;0.43;;;0.43;;
51479;SDS011;37556;44.570;18.612;2022-09-01T08:32:56;0.28;;;0.28;;
51479;SDS011;37556;44.570;18.612;2022-09-01T08:35:23;0.32;;;0.32;;
51479;SDS011;37556;44.570;18.612;2022-09-01T08:37:49;0.30;;;0.30;;
51479;SDS011;37556;44.570;18.612;2022-09-01T08:45:28;0.47;;;0.47;;
51479;SDS011;37556;44.570;18.612;2022-09-01T08:47:56;1.00;;;1.00;;
51479;SDS011;37556;44.570;18.612;2022-09-01T08:50:24;0.90;;;0.90;;
51479;SDS011;37556;44.570;18.612;2022-09-01T08:52:55;0.40;;;0.40;;
51479;SDS011;37556;44.570;18.612;2022-09-01T08:55:26;0.47;;;0.47;;
51479;SDS011;37556;44.570;18.612;2022-09-01T08:57:54;0.63;;;0.60;;
51479;SDS011;37556;44.570;18.612;2022-09-01T09:00:25;1.05;;;1.05;;
51479;SDS011;37556;44.570;18.612;2022-09-01T09:10:29;0.45;;;0.45;;
51479;SDS011;37556;44.570;18.612;2022-09-01T09:13:11;0.55;;;0.55;;
51479;SDS011;37556;44.570;18.612;2022-09-01T09:15:53;0.30;;;0.30;;
51479;SDS011;37556;44.570;18.612;2022-09-01T09:20:50;0.50;;;0.50;;
51479;SDS011;37556;44.570;18.612;2022-09-01T09:23:24;0.20;;;0.20;;
51479;SDS011;37556;44.570;18.612;2022-09-01T09:25:53;0.40;;;0.40;;
51479;SDS011;37556;44.570;18.612;2022-09-01T09:28:19;0.95;;;0.95;;
51479;SDS011;37556;44.570;18.612;2022-09-01T09:33:31;0.77;;;0.77;;
51479;SDS011;37556;44.570;18.612;2022-09-01T09:36:14;1.40;;;0.68;;
51479;SDS011;37556;44.570;18.612;2022-09-01T09:38:41;1.13;;;1.13;;
51479;SDS011;37556;44.570;18.612;2022-09-01T09:43:37;0.43;;;0.43;;
51479;SDS011;37556;44.570;18.612;2022-09-01T09:48:46;0.35;;;0.35;;
51479;SDS011;37556;44.570;18.612;2022-09-01T09:51:16;1.63;;;0.30;;
51479;SDS011;37556;44.570;18.612;2022-09-01T09:53:44;0.30;;;0.28;;
51479;SDS011;37556;44.570;18.612;2022-09-01T09:58:40;3.13;;;0.88;;
51479;SDS011;37556;44.570;18.612;2022-09-01T10:01:11;0.93;;;0.90;;
51479;SDS011;37556;44.570;18.612;2022-09-01T10:03:47;0.15;;;0.15;;
51479;SDS011;37556;44.570;18.612;2022-09-01T10:08:56;1.17;;;0.45;;
51479;SDS011;37556;44.570;18.612;2022-09-01T10:11:39;0.80;;;0.80;;
51479;SDS011;37556;44.570;18.612;2022-09-01T10:14:09;0.52;;;0.45;;
51479;SDS011;37556;44.570;18.612;2022-09-01T10:16:36;0.50;;;0.50;;
51479;SDS011;37556;44.570;18.612;2022-09-01T10:19:03;0.65;;;0.65;;
51479;SDS011;37556;44.570;18.612;2022-09-01T10:21:38;0.45;;;0.45;;
51479;SDS011;37556;44.570;18.612;2022-09-01T10:24:25;0.22;;;0.22;;
51479;SDS011;37556;44.570;18.612;2022-09-01T10:26:54;1.25;;;0.98;;
51479;SDS011;37556;44.570;18.612;2022-09-01T10:29:23;0.30;;;0.30;;
51479;SDS011;37556;44.570;18.612;2022-09-01T10:31:52;0.68;;;0.68;;
51479;SDS011;37556;44.570;18.612;2022-09-01T10:34:19;0.88;;;0.88;;
51479;SDS011;37556;44.570;18.612;2022-09-01T10:36:46;0.75;;;0.68;;
51479;SDS011;37556;44.570;18.612;2022-09-01T10:39:13;0.40;;;0.40;;
51479;SDS011;37556;44.570;18.612;2022-09-01T10:44:28;0.20;;;0.20;;
51479;SDS011;37556;44.570;18.612;2022-09-01T10:46:59;0.80;;;0.80;;
51479;SDS011;37556;44.570;18.612;2022-09-01T10:57:04;0.70;;;0.55;;
51479;SDS011;37556;44.570;18.612;2022-09-01T10:59:32;0.47;;;0.47;;
51479;SDS011;37556;44.570;18.612;2022-09-01T11:07:49;0.50;;;0.50;;
51479;SDS011;37556;44.570;18.612;2022-09-01T11:17:30;0.30;;;0.30;;
51479;SDS011;37556;44.570;18.612;2022-09-01T11:22:40;0.75;;;0.75;;
51479;SDS011;37556;44.570;18.612;2022-09-01T11:25:42;1.10;;;1.00;;
51479;SDS011;37556;44.570;18.612;2022-09-01T11:28:01;0.68;;;0.68;;
51479;SDS011;37556;44.570;18.612;2022-09-01T11:35:59;0.35;;;0.35;;
51479;SDS011;37556;44.570;18.612;2022-09-01T11:38:26;0.60;;;0.60;;
51479;SDS011;37556;44.570;18.612;2022-09-01T11:40:54;0.98;;;0.47;;
51479;SDS011;37556;44.570;18.612;2022-09-01T11:43:20;0.30;;;0.30;;
51479;SDS011;37556;44.570;18.612;2022-09-01T11:45:56;1.10;;;1.00;;
51479;SDS011;37556;44.570;18.612;2022-09-01T11:48:24;0.80;;;0.80;;
51479;SDS011;37556;44.570;18.612;2022-09-01T11:50:58;0.90;;;0.90;;
51479;SDS011;37556;44.570;18.612;2022-09-01T11:53:24;1.35;;;0.80;;
51479;SDS011;37556;44.570;18.612;2022-09-01T11:55:52;0.15;;;0.15;;
51479;SDS011;37556;44.570;18.612;2022-09-01T12:00:52;0.63;;;0.63;;
51479;SDS011;37556;44.570;18.612;2022-09-01T12:05:45;1.17;;;1.17;;
51479;SDS011;37556;44.570;18.612;2022-09-01T12:08:13;0.40;;;0.40;;
51479;SDS011;37556;44.570;18.612;2022-09-01T12:10:41;1.33;;;1.23;;
51479;SDS011;37556;44.570;18.612;2022-09-01T12:13:10;0.65;;;0.65;;
51479;SDS011;37556;44.570;18.612;2022-09-01T12:15:38;1.52;;;1.00;;
51479;SDS011;37556;44.570;18.612;2022-09-01T12:18:19;1.35;;;1.33;;
51479;SDS011;37556;44.570;18.612;2022-09-01T12:20:50;0.73;;;0.73;;
51479;SDS011;37556;44.570;18.612;2022-09-01T12:28:09;3.40;;;1.02;;
51479;SDS011;37556;44.570;18.612;2022-09-01T12:30:36;1.02;;;0.95;;
51479;SDS011;37556;44.570;18.612;2022-09-01T12:33:05;1.13;;;0.88;;
51479;SDS011;37556;44.570;18.612;2022-09-01T12:35:31;0.22;;;0.22;;
51479;SDS011;37556;44.570;18.612;2022-09-01T12:40:25;0.82;;;0.82;;
51479;SDS011;37556;44.570;18.612;2022-09-01T12:42:55;1.60;;;1.27;;
51479;SDS011;37556;44.570;18.612;2022-09-01T12:47:47;0.50;;;0.50;;
51479;SDS011;37556;44.570;18.612;2022-09-01T12:57:36;0.25;;;0.25;;
51479;SDS011;37556;44.570;18.612;2022-09-01T13:00:19;2.03;;;1.13;;
51479;SDS011;37556;44.570;18.612;2022-09-01T13:02:49;0.55;;;0.55;;
51479;SDS011;37556;44.570;18.612;2022-09-01T13:05:27;0.90;;;0.70;;
51479;SDS011;37556;44.570;18.612;2022-09-01T13:07:54;0.82;;;0.82;;
51479;SDS011;37556;44.570;18.612;2022-09-01T13:10:22;0.95;;;0.95;;
51479;SDS011;37556;44.570;18.612;2022-09-01T13:12:50;1.23;;;1.08;;
51479;SDS011;37556;44.570;18.612;2022-09-01T13:15:17;5.18;;;0.88;;
51479;SDS011;37556;44.570;18.612;2022-09-01T13:17:43;1.95;;;0.77;;
51479;SDS011;37556;44.570;18.612;2022-09-01T13:20:09;0.43;;;0.43;;
51479;SDS011;37556;44.570;18.612;2022-09-01T13:22:36;0.32;;;0.32;;
51479;SDS011;37556;44.570;18.612;2022-09-01T13:25:03;0.45;;;0.45;;
51479;SDS011;37556;44.570;18.612;2022-09-01T13:27:30;0.52;;;0.52;;
51479;SDS011;37556;44.570;18.612;2022-09-01T13:29:56;1.35;;;1.25;;
51479;SDS011;37556;44.570;18.612;2022-09-01T13:32:22;0.77;;;0.77;;
51479;SDS011;37556;44.570;18.612;2022-09-01T13:34:50;1.63;;;0.95;;
51479;SDS011;37556;44.570;18.612;2022-09-01T13:37:17;0.30;;;0.30;;
51479;SDS011;37556;44.570;18.612;2022-09-01T13:39:43;0.50;;;0.50;;
51479;SDS011;37556;44.570;18.612;2022-09-01T13:42:11;0.88;;;0.88;;
51479;SDS011;37556;44.570;18.612;2022-09-01T13:44:38;0.73;;;0.73;;
51479;SDS011;37556;44.570;18.612;2022-09-01T13:49:30;2.03;;;0.50;;
51479;SDS011;37556;44.570;18.612;2022-09-01T13:54:22;1.65;;;1.55;;
51479;SDS011;37556;44.570;18.612;2022-09-01T13:59:15;0.85;;;0.85;;
51479;SDS011;37556;44.570;18.612;2022-09-01T14:04:07;3.17;;;2.25;;
51479;SDS011;37556;44.570;18.612;2022-09-01T14:06:43;0.73;;;0.57;;
51479;SDS011;37556;44.570;18.612;2022-09-01T14:09:10;0.93;;;0.93;;
51479;SDS011;37556;44.570;18.612;2022-09-01T14:11:36;0.80;;;0.80;;
51479;SDS011;37556;44.570;18.612;2022-09-01T14:14:02;0.52;;;0.52;;
51479;SDS011;37556;44.570;18.612;2022-09-01T14:16:28;1.27;;;0.98;;
51479;SDS011;37556;44.570;18.612;2022-09-01T14:18:55;0.57;;;0.57;;
51479;SDS011;37556;44.570;18.612;2022-09-01T14:23:47;0.60;;;0.60;;
51479;SDS011;37556;44.570;18.612;2022-09-01T14:26:14;0.45;;;0.45;;
51479;SDS011;37556;44.570;18.612;2022-09-01T14:28:40;0.10;;;0.10;;
51479;SDS011;37556;44.570;18.612;2022-09-01T14:31:09;0.60;;;0.60;;
51479;SDS011;37556;44.570;18.612;2022-09-01T14:33:36;0.50;;;0.50;;
51479;SDS011;37556;44.570;18.612;2022-09-01T14:36:03;0.35;;;0.35;;
51479;SDS011;37556;44.570;18.612;2022-09-01T14:38:29;0.47;;;0.47;;
51479;SDS011;37556;44.570;18.612;2022-09-01T14:40:56;1.10;;;0.32;;
51479;SDS011;37556;44.570;18.612;2022-09-01T14:45:49;0.77;;;0.68;;
51479;SDS011;37556;44.570;18.612;2022-09-01T14:48:26;0.55;;;0.55;;
51479;SDS011;37556;44.570;18.612;2022-09-01T14:50:52;0.30;;;0.30;;
51479;SDS011;37556;44.570;18.612;2022-09-01T14:55:44;0.82;;;0.82;;
51479;SDS011;37556;44.570;18.612;2022-09-01T15:00:37;0.10;;;0.10;;
51479;SDS011;37556;44.570;18.612;2022-09-01T15:03:05;0.43;;;0.43;;
51479;SDS011;37556;44.570;18.612;2022-09-01T15:07:57;0.43;;;0.43;;
51479;SDS011;37556;44.570;18.612;2022-09-01T15:10:24;1.00;;;1.00;;
51479;SDS011;37556;44.570;18.612;2022-09-01T15:13:00;0.40;;;0.40;;
51479;SDS011;37556;44.570;18.612;2022-09-01T15:15:27;0.00;;;0.00;;
51479;SDS011;37556;44.570;18.612;2022-09-01T15:17:54;0.40;;;0.22;;
51479;SDS011;37556;44.570;18.612;2022-09-01T15:20:20;1.05;;;0.93;;
51479;SDS011;37556;44.570;18.612;2022-09-01T15:23:05;0.40;;;0.35;;
51479;SDS011;37556;44.570;18.612;2022-09-01T15:25:32;3.05;;;0.90;;
51479;SDS011;37556;44.570;18.612;2022-09-01T15:27:58;0.00;;;0.00;;
51479;SDS011;37556;44.570;18.612;2022-09-01T15:30:25;0.55;;;0.55;;
51479;SDS011;37556;44.570;18.612;2022-09-01T15:32:52;0.45;;;0.45;;
51479;SDS011;37556;44.570;18.612;2022-09-01T15:35:18;3.25;;;0.30;;
51479;SDS011;37556;44.570;18.612;2022-09-01T15:37:48;1.45;;;1.33;;
51479;SDS011;37556;44.570;18.612;2022-09-01T15:40:15;0.10;;;0.10;;
51479;SDS011;37556;44.570;18.612;2022-09-01T15:42:42;0.20;;;0.20;;
51479;SDS011;37556;44.570;18.612;2022-09-01T15:45:11;1.17;;;0.45;;
51479;SDS011;37556;44.570;18.612;2022-09-01T15:47:38;0.20;;;0.10;;
51479;SDS011;37556;44.570;18.612;2022-09-01T15:50:05;0.63;;;0.63;;
51479;SDS011;37556;44.570;18.612;2022-09-01T15:52:31;0.10;;;0.10;;
51479;SDS011;37556;44.570;18.612;2022-09-01T15:54:58;0.93;;;0.93;;
51479;SDS011;37556;44.570;18.612;2022-09-01T15:57:25;0.82;;;0.80;;
51479;SDS011;37556;44.570;18.612;2022-09-01T15:59:51;0.38;;;0.38;;
51479;SDS011;37556;44.570;18.612;2022-09-01T16:04:49;0.30;;;0.30;;
51479;SDS011;37556;44.570;18.612;2022-09-01T16:09:42;0.38;;;0.38;;
51479;SDS011;37556;44.570;18.612;2022-09-01T16:14:34;1.00;;;0.77;;
51479;SDS011;37556;44.570;18.612;2022-09-01T16:17:14;0.35;;;0.35;;
51479;SDS011;37556;44.570;18.612;2022-09-01T16:19:47;0.80;;;0.80;;
51479;SDS011;37556;44.570;18.612;2022-09-01T16:24:48;0.45;;;0.45;;
51479;SDS011;37556;44.570;18.612;2022-09-01T16:27:16;0.70;;;0.63;;
51479;SDS011;37556;44.570;18.612;2022-09-01T16:29:44;0.25;;;0.25;;
51479;SDS011;37556;44.570;18.612;2022-09-01T16:32:12;0.38;;;0.38;;
51479;SDS011;37556;44.570;18.612;2022-09-01T16:34:40;1.35;;;0.57;;
51479;SDS011;37556;44.570;18.612;2022-09-01T16:37:22;0.40;;;0.40;;
51479;SDS011;37556;44.570;18.612;2022-09-01T16:44:57;0.32;;;0.32;;
51479;SDS011;37556;44.570;18.612;2022-09-01T16:50:19;0.30;;;0.30;;
51479;SDS011;37556;44.570;18.612;2022-09-01T16:55:26;0.22;;;0.22;;
51479;SDS011;37556;44.570;18.612;2022-09-01T16:58:08;3.15;;;0.63;;
51479;SDS011;37556;44.570;18.612;2022-09-01T17:00:39;0.35;;;0.35;;
51479;SDS011;37556;44.570;18.612;2022-09-01T17:03:13;0.30;;;0.30;;
51479;SDS011;37556;44.570;18.612;2022-09-01T17:06:18;1.08;;;0.85;;
51479;SDS011;37556;44.570;18.612;2022-09-01T17:08:37;0.45;;;0.45;;
51479;SDS011;37556;44.570;18.612;2022-09-01T17:11:14;0.52;;;0.52;;
51479;SDS011;37556;44.570;18.612;2022-09-01T17:13:47;0.60;;;0.60;;
51479;SDS011;37556;44.570;18.612;2022-09-01T17:16:29;1.67;;;0.80;;
51479;SDS011;37556;44.570;18.612;2022-09-01T17:19:02;0.43;;;0.43;;
51479;SDS011;37556;44.570;18.612;2022-09-01T17:21:31;0.65;;;0.55;;
51479;SDS011;37556;44.570;18.612;2022-09-01T17:24:22;1.02;;;0.50;;
51479;SDS011;37556;44.570;18.612;2022-09-01T17:26:48;0.00;;;0.00;;
51479;SDS011;37556;44.570;18.612;2022-09-01T17:49:36;0.00;;;0.00;;
51479;SDS011;37556;44.570;18.612;2022-09-01T17:55:04;0.20;;;0.20;;